Time;durP1;ratioP1;P1;durP2;ratioP2;P2;SDS_P1;SDS_P2;PMS_P1;PMS_P2;Temp;Humidity;BMP_temperature;BMP_pressure;BME280_temperature;BME280_humidity;BME280_pressure;Samples;Min_cycle;Max_cycle;Signal;HPM_P1;HPM_P2
2024/04/09 00:00:46;;;;;;;4.38;0.80;;;20.00;68.20;;;;;;5418179;26;20023;-73
2024/04/09 00:03:13;;;;;;;1.98;1.00;;;19.90;68.20;;;;;;5417479;26;20035;-73
2024/04/09 00:05:40;;;;;;;4.18;1.10;;;19.90;68.40;;;;;;5418349;26;20470;-73
2024/04/09 00:08:13;;;;;;;3.35;0.85;;;19.80;68.60;;;;;;5417888;26;20027;-72
2024/04/09 00:10:40;;;;;;;4.85;1.05;;;19.80;68.80;;;;;;5418020;26;20019;-73
2024/04/09 00:13:06;;;;;;;1.77;1.05;;;19.70;68.80;;;;;;5417166;26;20032;-73
2024/04/09 00:15:36;;;;;;;2.90;1.45;;;19.70;68.90;;;;;;5418245;26;20031;-73
2024/04/09 00:18:11;;;;;;;2.35;0.90;;;19.70;69.00;;;;;;5416865;26;20035;-73
2024/04/09 00:20:39;;;;;;;4.40;0.93;;;19.70;69.10;;;;;;5417978;26;19999;-73
2024/04/09 00:23:06;;;;;;;2.10;0.70;;;19.70;69.30;;;;;;5417424;26;20473;-73
2024/04/09 00:25:32;;;;;;;1.67;0.75;;;19.70;69.60;;;;;;5418014;26;20016;-73
2024/04/09 00:27:59;;;;;;;1.80;1.02;;;19.70;69.60;;;;;;5417604;26;20035;-73
2024/04/09 00:30:27;;;;;;;2.10;1.10;;;19.70;69.90;;;;;;5417898;26;20363;-73
2024/04/09 00:32:53;;;;;;;2.15;0.85;;;19.60;70.00;;;;;;5417811;26;20019;-73
2024/04/09 00:35:23;;;;;;;2.47;1.02;;;19.60;70.10;;;;;;5417860;26;20025;-73
2024/04/09 00:37:56;;;;;;;1.25;0.70;;;19.50;70.40;;;;;;5417347;26;20027;-73
2024/04/09 00:40:24;;;;;;;;;;;19.50;70.50;;;;;;5418488;26;20489;-72
2024/04/09 00:42:52;;;;;;;2.40;1.00;;;19.40;72.80;;;;;;5417198;26;19953;-73
2024/04/09 00:45:22;;;;;;;2.65;1.10;;;19.40;71.00;;;;;;5416979;26;20040;-73
2024/04/09 00:47:53;;;;;;;2.00;1.10;;;19.40;71.00;;;;;;5416846;26;20482;-73
2024/04/09 00:50:21;;;;;;;3.83;1.10;;;19.40;71.30;;;;;;5385579;26;20031;-73
2024/04/09 00:52:48;;;;;;;3.00;1.27;;;19.30;71.40;;;;;;5417375;26;20029;-73
2024/04/09 00:55:15;;;;;;;1.70;1.10;;;19.30;71.80;;;;;;5417320;26;20029;-73
2024/04/09 00:57:48;;;;;;;4.13;1.00;;;19.30;71.90;;;;;;5416914;26;20023;-72
2024/04/09 01:00:17;;;;;;;3.22;1.33;;;19.20;72.60;;;;;;5416660;26;20024;-73
2024/04/09 01:02:48;;;;;;;4.75;1.23;;;19.20;72.50;;;;;;5416635;26;20032;-73
2024/04/09 01:05:18;;;;;;;2.35;1.08;;;19.10;72.30;;;;;;5417533;26;20023;-73
2024/04/09 01:07:44;;;;;;;3.25;1.33;;;19.00;72.60;;;;;;5417108;26;20019;-73
2024/04/09 01:10:11;;;;;;;2.10;1.23;;;19.00;72.60;;;;;;5385670;26;20027;-73
2024/04/09 01:12:38;;;;;;;4.53;1.27;;;18.90;72.60;;;;;;5417242;26;20020;-73
2024/04/09 01:15:04;;;;;;;3.70;1.10;;;18.80;72.70;;;;;;5416128;26;20027;-73
2024/04/09 01:17:32;;;;;;;2.50;1.08;;;18.80;72.70;;;;;;5416656;26;20366;-73
2024/04/09 01:19:58;;;;;;;5.43;1.55;;;18.80;72.90;;;;;;5417080;26;20023;-73
2024/04/09 01:22:29;;;;;;;3.88;1.40;;;18.70;72.90;;;;;;5419721;26;20028;-73
2024/04/09 01:24:56;;;;;;;3.30;1.33;;;18.70;73.20;;;;;;5420685;26;20020;-73
2024/04/09 01:27:22;;;;;;;3.35;1.30;;;18.80;73.00;;;;;;5419175;26;20035;-76
2024/04/09 01:29:49;;;;;;;4.07;1.10;;;18.70;73.20;;;;;;5420002;26;20458;-75
2024/04/09 01:32:17;;;;;;;3.55;1.33;;;18.70;73.40;;;;;;5388773;26;20015;-75
2024/04/09 01:34:44;;;;;;;7.68;1.27;;;18.80;73.50;;;;;;5420454;26;20394;-76
2024/04/09 01:37:12;;;;;;;1.88;1.13;;;18.70;73.50;;;;;;5419639;26;20019;-76
2024/04/09 01:39:40;;;;;;;3.25;1.48;;;18.60;73.50;;;;;;5418519;26;20031;-76
2024/04/09 01:42:08;;;;;;;3.75;1.27;;;18.60;73.60;;;;;;5418428;26;20020;-75
2024/04/09 01:44:35;;;;;;;2.03;0.95;;;18.60;73.60;;;;;;5418818;26;20028;-75
2024/04/09 01:47:01;;;;;;;3.15;1.05;;;18.60;73.70;;;;;;5419934;26;20020;-76
2024/04/09 01:49:27;;;;;;;3.20;1.10;;;18.60;73.70;;;;;;5420128;26;20024;-75
2024/04/09 01:51:54;;;;;;;3.95;1.48;;;18.50;73.70;;;;;;5419826;26;20019;-75
2024/04/09 01:54:20;;;;;;;5.53;1.25;;;18.50;73.60;;;;;;5420142;26;20020;-75
2024/04/09 01:56:46;;;;;;;5.00;1.27;;;18.50;73.60;;;;;;5419839;26;20024;-74
2024/04/09 01:59:12;;;;;;;3.08;1.45;;;18.50;73.70;;;;;;5421323;26;20019;-74
2024/04/09 02:01:41;;;;;;;2.85;0.90;;;18.50;73.50;;;;;;5418874;26;20032;-74
2024/04/09 02:04:07;;;;;;;3.83;1.20;;;18.50;73.70;;;;;;5419828;26;20454;-74
2024/04/09 02:06:35;;;;;;;4.18;1.27;;;18.50;73.60;;;;;;5419568;26;20483;-74
2024/04/09 02:09:02;;;;;;;6.43;1.25;;;18.50;73.40;;;;;;5420152;26;20024;-73
2024/04/09 02:11:28;;;;;;;2.85;1.20;;;18.50;73.30;;;;;;5418889;26;20028;-74
2024/04/09 02:13:55;;;;;;;2.60;1.30;;;18.60;73.20;;;;;;5418861;26;20015;-74
2024/04/09 02:16:24;;;;;;;6.70;1.23;;;18.60;73.10;;;;;;5419750;26;20020;-74
2024/04/09 02:18:51;;;;;;;2.08;1.13;;;18.60;73.10;;;;;;5419000;26;20027;-75
2024/04/09 02:21:20;;;;;;;1.73;1.17;;;18.60;72.90;;;;;;5419896;26;20028;-74
2024/04/09 02:23:47;;;;;;;5.10;1.52;;;18.60;73.00;;;;;;5419801;26;20015;-75
2024/04/09 02:26:13;;;;;;;4.28;1.40;;;18.60;73.00;;;;;;5419292;26;20020;-74
2024/04/09 02:28:39;;;;;;;3.33;1.30;;;18.60;73.00;;;;;;5419611;26;20466;-75
2024/04/09 02:31:06;;;;;;;2.25;1.17;;;18.60;72.90;;;;;;5418426;26;20032;-74
2024/04/09 02:33:33;;;;;;;4.13;1.30;;;18.60;72.90;;;;;;5419290;26;20019;-74
2024/04/09 02:36:02;;;;;;;2.88;1.17;;;18.70;73.10;;;;;;5419638;26;20027;-75
2024/04/09 02:38:30;;;;;;;3.30;1.10;;;18.60;72.90;;;;;;5419084;26;20027;-75
2024/04/09 02:40:57;;;;;;;3.47;1.23;;;18.60;72.90;;;;;;5418567;26;20028;-76
2024/04/09 02:43:23;;;;;;;2.40;1.15;;;18.60;72.90;;;;;;5419446;26;20465;-76
2024/04/09 02:45:50;;;;;;;4.93;1.60;;;18.70;72.80;;;;;;5417797;26;20024;-76
2024/04/09 02:48:16;;;;;;;2.88;1.27;;;18.60;72.80;;;;;;5417840;26;20028;-76
2024/04/09 02:50:43;;;;;;;3.28;1.40;;;18.70;72.80;;;;;;5418917;26;20114;-74
2024/04/09 02:53:10;;;;;;;3.10;1.25;;;18.70;72.90;;;;;;5419371;26;20019;-74
2024/04/09 02:55:36;;;;;;;3.40;1.38;;;18.60;72.80;;;;;;5418811;26;20361;-74
2024/04/09 02:58:05;;;;;;;5.10;1.30;;;18.60;72.80;;;;;;5387691;26;20035;-74
2024/04/09 03:00:32;;;;;;;2.35;1.23;;;18.60;72.80;;;;;;5418988;26;20032;-74
2024/04/09 03:02:58;;;;;;;4.10;1.10;;;18.60;72.80;;;;;;5419104;26;20355;-74
2024/04/09 03:05:32;;;;;;;2.85;1.35;;;18.60;72.80;;;;;;5419294;26;20019;-74
2024/04/09 03:07:59;;;;;;;3.72;1.35;;;18.60;73.10;;;;;;5418999;26;20032;-73
2024/04/09 03:10:26;;;;;;;3.75;1.30;;;18.60;72.90;;;;;;5418603;26;20032;-74
2024/04/09 03:12:53;;;;;;;4.03;1.33;;;18.60;72.80;;;;;;5419088;26;20474;-73
2024/04/09 03:15:19;;;;;;;1.98;1.10;;;18.60;73.50;;;;;;5418966;26;20028;-74
2024/04/09 03:17:45;;;;;;;1.73;1.10;;;18.60;73.00;;;;;;5418852;26;20462;-74
2024/04/09 03:20:12;;;;;;;1.80;1.30;;;18.60;73.10;;;;;;5418566;26;20028;-74
2024/04/09 03:22:39;;;;;;;5.28;1.60;;;18.60;73.20;;;;;;5419042;26;20019;-74
2024/04/09 03:25:06;;;;;;;1.70;1.00;;;18.50;73.20;;;;;;5418907;26;20028;-74
2024/04/09 03:27:36;;;;;;;3.60;1.45;;;18.50;73.30;;;;;;5417878;26;20027;-74
2024/04/09 03:30:04;;;;;;;3.78;1.15;;;18.50;73.50;;;;;;5417341;26;20031;-74
2024/04/09 03:32:31;;;;;;;6.55;1.35;;;18.50;73.60;;;;;;5383072;26;20020;-74
2024/04/09 03:34:57;;;;;;;3.47;1.30;;;18.40;73.50;;;;;;5383467;26;20020;-74
2024/04/09 03:37:23;;;;;;;2.63;1.30;;;18.40;73.70;;;;;;5381554;26;20021;-74
2024/04/09 03:39:50;;;;;;;3.28;1.30;;;18.40;73.60;;;;;;5393662;26;20032;-74
2024/04/09 03:42:16;;;;;;;3.25;1.15;;;18.40;73.70;;;;;;5418136;26;20028;-74
2024/04/09 03:44:42;;;;;;;3.60;1.23;;;18.40;73.60;;;;;;5417400;26;20023;-74
2024/04/09 03:47:08;;;;;;;5.78;1.75;;;18.40;73.70;;;;;;5418401;26;20355;-74
2024/04/09 03:49:35;;;;;;;2.50;1.20;;;18.40;73.70;;;;;;5418574;26;20023;-74
2024/04/09 03:52:02;;;;;;;3.45;1.40;;;18.40;73.70;;;;;;5418581;26;20364;-75
2024/04/09 03:54:29;;;;;;;4.10;1.38;;;18.40;73.70;;;;;;5418537;26;20032;-75
2024/04/09 03:56:56;;;;;;;2.88;1.60;;;18.40;73.70;;;;;;5416885;26;20023;-75
2024/04/09 03:59:22;;;;;;;2.35;1.20;;;18.40;73.70;;;;;;5418133;26;20019;-75
2024/04/09 04:01:48;;;;;;;2.58;1.17;;;18.40;73.70;;;;;;5418308;26;20040;-75
2024/04/09 04:04:15;;;;;;;5.28;1.35;;;18.30;73.80;;;;;;5418469;26;20019;-75
2024/04/09 04:06:41;;;;;;;5.65;1.70;;;18.30;73.90;;;;;;5417340;26;20027;-75
2024/04/09 04:09:08;;;;;;;10.18;1.42;;;18.30;74.20;;;;;;5417394;26;20023;-79
2024/04/09 04:11:36;;;;;;;4.68;1.67;;;18.20;74.30;;;;;;5417395;26;20036;-80
2024/04/09 04:14:02;;;;;;;2.85;1.33;;;18.20;74.60;;;;;;5418277;26;20019;-79
2024/04/09 04:16:28;;;;;;;3.95;1.50;;;18.20;74.90;;;;;;5417329;26;20027;-78
2024/04/09 04:18:55;;;;;;;2.42;1.50;;;18.10;74.90;;;;;;5417632;26;20035;-77
2024/04/09 04:21:22;;;;;;;3.53;1.30;;;18.10;75.10;;;;;;5417967;26;20028;-78
2024/04/09 04:23:56;;;;;;;2.45;1.52;;;18.10;75.30;;;;;;5417798;26;20023;-78
2024/04/09 04:26:24;;;;;;;4.05;1.40;;;18.10;75.50;;;;;;5417961;26;20357;-78
2024/04/09 04:28:51;;;;;;;2.55;1.30;;;18.00;75.60;;;;;;5397563;26;20031;-78
2024/04/09 04:31:22;;;;;;;1.50;1.17;;;18.00;75.90;;;;;;5419202;26;20370;-78
2024/04/09 04:33:52;;;;;;;4.65;1.20;;;17.90;76.20;;;;;;5434608;26;20048;-77
2024/04/09 04:36:19;;;;;;;3.05;1.40;;;17.90;76.40;;;;;;5442747;26;20423;-78
2024/04/09 04:38:47;;;;;;;4.25;1.60;;;17.80;76.40;;;;;;5427879;26;20039;-78
2024/04/09 04:41:14;;;;;;;7.03;1.90;;;17.80;76.70;;;;;;5432452;26;20026;-73
2024/04/09 04:43:41;;;;;;;2.75;1.25;;;17.80;76.80;;;;;;5429223;26;20034;-73
2024/04/09 04:46:07;;;;;;;4.53;1.63;;;17.80;76.90;;;;;;5452617;26;20031;-73
2024/04/09 04:48:34;;;;;;;4.75;1.35;;;17.80;77.00;;;;;;5452023;26;20401;-73
2024/04/09 04:51:00;;;;;;;8.30;4.53;;;17.80;77.30;;;;;;5418744;26;20039;-73
2024/04/09 04:53:27;;;;;;;5.72;1.40;;;17.80;77.40;;;;;;5384796;26;20031;-73
2024/04/09 04:55:53;;;;;;;3.97;1.50;;;17.80;78.10;;;;;;5418080;26;20516;-73
2024/04/09 04:58:19;;;;;;;2.88;1.25;;;17.70;77.40;;;;;;5418549;26;20027;-71
2024/04/09 05:00:46;;;;;;;6.57;1.40;;;17.70;77.60;;;;;;5420147;26;20027;-73
2024/04/09 05:03:12;;;;;;;2.13;1.33;;;17.70;77.90;;;;;;5420007;26;20036;-73
2024/04/09 05:05:39;;;;;;;2.88;1.27;;;17.70;77.90;;;;;;5420090;26;20031;-73
2024/04/09 05:08:06;;;;;;;2.80;1.20;;;17.70;77.90;;;;;;5419138;26;20035;-72
2024/04/09 05:10:32;;;;;;;2.13;1.35;;;17.70;77.60;;;;;;5419360;26;20048;-72
2024/04/09 05:12:59;;;;;;;2.92;1.25;;;17.70;77.50;;;;;;5387275;26;20477;-73
2024/04/09 05:15:25;;;;;;;3.10;1.40;;;17.80;77.40;;;;;;5421737;26;20035;-72
2024/04/09 05:17:51;;;;;;;3.60;1.60;;;17.80;77.70;;;;;;5417785;26;20032;-73
2024/04/09 05:20:18;;;;;;;6.90;1.52;;;17.80;77.60;;;;;;5387714;26;20383;-74
2024/04/09 05:22:47;;;;;;;3.28;1.17;;;17.80;77.70;;;;;;5420064;26;20489;-73
2024/04/09 05:25:15;;;;;;;2.63;1.42;;;17.90;77.70;;;;;;5419254;26;20039;-73
2024/04/09 05:27:42;;;;;;;2.55;1.63;;;17.90;77.70;;;;;;5419068;26;20057;-73
2024/04/09 05:30:12;;;;;;;3.67;1.50;;;17.90;77.50;;;;;;5419934;26;20036;-73
2024/04/09 05:32:41;;;;;;;4.13;1.70;;;18.00;77.60;;;;;;5418621;26;20044;-73
2024/04/09 05:35:12;;;;;;;3.13;1.65;;;18.00;77.50;;;;;;5419866;26;20380;-73
2024/04/09 05:37:38;;;;;;;2.40;1.55;;;18.00;77.70;;;;;;5419619;26;20470;-73
2024/04/09 05:40:09;;;;;;;4.20;1.50;;;18.00;77.50;;;;;;5419727;26;20478;-72
2024/04/09 05:42:43;;;;;;;3.58;1.33;;;18.00;77.50;;;;;;5418740;26;20035;-75
2024/04/09 05:45:12;;;;;;;4.32;1.58;;;18.10;77.70;;;;;;5450304;26;20042;-75
2024/04/09 05:47:38;;;;;;;2.20;1.15;;;18.10;77.60;;;;;;5454821;26;20038;-75
2024/04/09 05:50:05;;;;;;;8.15;1.80;;;18.10;77.80;;;;;;5455582;26;20046;-76
2024/04/09 05:52:34;;;;;;;3.00;1.52;;;18.20;77.70;;;;;;5427669;26;20398;-75
2024/04/09 05:55:00;;;;;;;2.53;1.40;;;18.20;77.80;;;;;;5418787;26;20380;-75
2024/04/09 05:57:26;;;;;;;3.10;1.63;;;18.30;77.70;;;;;;5418132;26;20374;-76
2024/04/09 05:59:54;;;;;;;5.78;1.75;;;18.30;77.50;;;;;;5418594;26;20036;-76
2024/04/09 06:02:21;;;;;;;3.70;1.60;;;18.30;77.50;;;;;;5424147;26;20063;-73
2024/04/09 06:04:47;;;;;;;3.33;1.70;;;18.30;77.60;;;;;;5423571;26;20027;-69
2024/04/09 06:07:14;;;;;;;2.40;1.27;;;18.30;77.50;;;;;;5418402;26;20031;-70
2024/04/09 06:09:40;;;;;;;2.60;1.50;;;18.30;77.60;;;;;;5418421;26;20028;-78
2024/04/09 06:12:07;;;;;;;2.60;1.40;;;18.30;78.30;;;;;;5418051;26;20031;-80
2024/04/09 06:14:33;;;;;;;4.20;1.65;;;18.30;78.10;;;;;;5440638;26;20039;-76
2024/04/09 06:17:00;;;;;;;2.35;1.52;;;18.30;78.00;;;;;;5453652;26;20395;-76
2024/04/09 06:19:26;;;;;;;2.83;1.40;;;18.30;78.10;;;;;;5455170;26;20481;-76
2024/04/09 06:21:52;;;;;;;3.58;1.65;;;18.30;78.40;;;;;;5455021;26;20035;-76
2024/04/09 06:24:18;;;;;;;3.42;1.50;;;18.30;78.30;;;;;;5454929;26;20031;-78
2024/04/09 06:26:44;;;;;;;3.20;1.38;;;18.20;78.30;;;;;;5453645;26;20038;-78
2024/04/09 06:29:10;;;;;;;3.05;1.58;;;18.30;78.80;;;;;;5418989;26;20035;-81
2024/04/09 06:31:37;;;;;;;5.60;1.52;;;18.30;78.70;;;;;;5419097;26;20028;-80
2024/04/09 06:34:04;;;;;;;5.22;1.50;;;18.30;78.90;;;;;;5416285;26;20039;-81
2024/04/09 06:36:30;;;;;;;3.60;1.58;;;18.40;79.00;;;;;;5385128;26;20031;-81
2024/04/09 06:38:56;;;;;;;1.65;1.20;;;18.50;79.00;;;;;;5418284;26;20040;-78
2024/04/09 06:41:23;;;;;;;5.32;1.90;;;18.50;78.90;;;;;;5419010;26;20027;-79
2024/04/09 06:43:49;;;;;;;3.30;1.50;;;18.60;79.00;;;;;;5418556;26;20019;-78
2024/04/09 06:46:15;;;;;;;3.30;1.15;;;18.60;78.80;;;;;;5417238;26;20027;-78
2024/04/09 06:48:41;;;;;;;3.63;1.55;;;18.70;78.70;;;;;;5419498;26;20023;-80
2024/04/09 06:51:08;;;;;;;2.00;1.23;;;18.80;78.50;;;;;;5419123;26;20023;-75
2024/04/09 06:53:34;;;;;;;6.43;1.65;;;18.80;78.50;;;;;;5419326;26;20350;-83
2024/04/09 06:56:00;;;;;;;2.88;1.30;;;18.80;78.60;;;;;;5419175;26;20023;-78
2024/04/09 06:58:26;;;;;;;2.33;1.25;;;18.90;78.60;;;;;;5419494;26;20019;-78
2024/04/09 07:00:52;;;;;;;5.78;1.40;;;18.90;78.50;;;;;;5418016;26;20027;-76
2024/04/09 07:03:19;;;;;;;2.92;1.40;;;19.00;78.60;;;;;;5417568;26;20489;-76
2024/04/09 07:05:45;;;;;;;3.03;1.25;;;19.10;78.60;;;;;;5417019;26;20047;-76
2024/04/09 07:08:12;;;;;;;5.72;1.45;;;19.10;78.60;;;;;;5419064;26;20020;-76
2024/04/09 07:10:38;;;;;;;2.25;1.30;;;19.20;78.60;;;;;;5419117;26;20032;-76
2024/04/09 07:13:04;;;;;;;3.88;1.45;;;19.30;78.60;;;;;;5419231;26;20027;-76
2024/04/09 07:15:30;;;;;;;3.78;1.33;;;19.40;78.40;;;;;;5417472;26;20050;-76
2024/04/09 07:17:57;;;;;;;4.55;1.70;;;19.50;78.50;;;;;;5416870;26;20032;-72
2024/04/09 07:20:23;;;;;;;7.57;1.40;;;19.60;77.90;;;;;;5418543;26;20024;-76
2024/04/09 07:22:49;;;;;;;1.98;1.25;;;19.70;77.70;;;;;;5418788;26;20352;-76
2024/04/09 07:25:15;;;;;;;3.25;1.35;;;19.70;77.30;;;;;;5419055;26;20028;-76
2024/04/09 07:27:43;;;;;;;4.38;1.48;;;19.90;77.40;;;;;;5416784;26;20373;-76
2024/04/09 07:30:10;;;;;;;2.85;1.23;;;19.90;77.00;;;;;;5414606;26;20044;-76
2024/04/09 07:32:36;;;;;;;3.17;1.30;;;20.00;77.00;;;;;;5414921;26;20024;-76
2024/04/09 07:35:03;;;;;;;2.63;1.30;;;20.10;77.30;;;;;;5383403;26;20035;-76
2024/04/09 07:37:30;;;;;;;3.05;1.58;;;20.20;77.20;;;;;;5415831;26;20505;-75
2024/04/09 07:39:57;;;;;;;2.97;1.33;;;20.30;77.30;;;;;;5413492;26;20023;-75
2024/04/09 07:42:23;;;;;;;2.20;1.30;;;20.50;77.10;;;;;;5382867;26;20036;-76
2024/04/09 07:44:50;;;;;;;2.75;1.20;;;20.60;76.80;;;;;;5414554;26;20031;-75
2024/04/09 07:47:17;;;;;;;2.30;1.27;;;20.70;76.80;;;;;;5414285;26;20036;-76
2024/04/09 07:49:44;;;;;;;4.15;1.40;;;20.70;76.40;;;;;;5414980;26;20023;-76
2024/04/09 07:52:10;;;;;;;12.13;1.38;;;20.90;76.30;;;;;;5414999;26;20031;-76
2024/04/09 07:54:36;;;;;;;2.50;1.23;;;21.00;76.50;;;;;;5414613;26;20374;-76
2024/04/09 07:57:03;;;;;;;3.85;1.42;;;21.10;75.60;;;;;;5414630;26;20027;-76
2024/04/09 07:59:30;;;;;;;4.40;1.23;;;21.10;75.70;;;;;;5413275;26;20399;-77
2024/04/09 08:01:56;;;;;;;6.68;1.48;;;21.30;75.90;;;;;;5414742;26;20474;-75
2024/04/09 08:04:22;;;;;;;8.88;1.20;;;21.30;75.60;;;;;;5415902;26;20032;-74
2024/04/09 08:06:48;;;;;;;4.50;1.45;;;21.40;75.00;;;;;;5417888;26;20025;-75
2024/04/09 08:09:15;;;;;;;7.35;1.35;;;21.40;74.40;;;;;;5418080;26;20035;-74
2024/04/09 08:11:44;;;;;;;3.80;1.45;;;21.50;74.60;;;;;;5418341;26;20032;-74
2024/04/09 08:14:11;;;;;;;2.50;1.25;;;21.50;74.40;;;;;;5418412;26;20023;-74
2024/04/09 08:16:38;;;;;;;2.50;1.17;;;21.60;74.70;;;;;;5416898;26;20373;-75
2024/04/09 08:19:05;;;;;;;5.93;1.33;;;21.70;74.40;;;;;;5418343;26;20028;-74
2024/04/09 08:21:31;;;;;;;2.95;1.30;;;21.80;74.10;;;;;;5417928;26;20032;-74
2024/04/09 08:23:58;;;;;;;6.10;1.58;;;21.80;74.30;;;;;;5386350;26;20043;-74
2024/04/09 08:26:24;;;;;;;4.22;1.48;;;21.90;73.90;;;;;;5417866;26;20020;-74
2024/04/09 08:28:52;;;;;;;3.58;1.17;;;22.00;74.00;;;;;;5417878;26;20035;-74
2024/04/09 08:31:28;;;;;;;7.13;1.30;;;22.00;73.70;;;;;;5384236;26;20023;-74
2024/04/09 08:33:54;;;;;;;5.45;1.40;;;22.10;73.70;;;;;;5415469;26;20024;-74
2024/04/09 08:36:22;;;;;;;3.35;1.48;;;22.20;73.60;;;;;;5443553;26;20027;-74
2024/04/09 08:38:52;;;;;;;3.92;1.25;;;22.30;73.50;;;;;;5416982;26;20031;-74
2024/04/09 08:41:18;;;;;;;4.93;1.20;;;22.40;73.20;;;;;;5417850;26;20035;-75
2024/04/09 08:43:47;;;;;;;2.30;1.20;;;22.50;73.50;;;;;;5417111;26;20032;-74
2024/04/09 08:46:13;;;;;;;3.67;1.23;;;22.60;73.30;;;;;;5417736;26;20470;-74
2024/04/09 08:48:40;;;;;;;3.25;1.20;;;22.60;73.30;;;;;;5416455;26;20024;-74
2024/04/09 08:51:10;;;;;;;1.88;1.23;;;22.70;73.20;;;;;;5412389;26;20027;-74
2024/04/09 08:53:37;;;;;;;5.28;1.50;;;22.70;73.20;;;;;;5413858;26;20502;-74
2024/04/09 08:56:05;;;;;;;2.13;1.15;;;22.80;72.10;;;;;;5413623;26;20477;-74
2024/04/09 08:58:31;;;;;;;2.65;1.23;;;22.90;72.50;;;;;;5413647;26;20023;-74
2024/04/09 09:00:58;;;;;;;4.90;1.23;;;22.90;72.50;;;;;;5415609;26;20375;-74
2024/04/09 09:03:25;;;;;;;4.18;1.77;;;22.90;72.50;;;;;;5384223;26;20023;-74
2024/04/09 09:06:01;;;;;;;3.00;1.30;;;23.00;72.00;;;;;;5417499;26;20023;-74
2024/04/09 09:08:38;;;;;;;3.55;1.13;;;23.10;71.40;;;;;;5417314;26;20027;-74
2024/04/09 09:11:05;;;;;;;6.65;1.13;;;23.20;70.90;;;;;;5385925;26;20020;-74
2024/04/09 09:13:31;;;;;;;4.90;1.05;;;23.20;72.00;;;;;;5417232;26;20023;-74
2024/04/09 09:15:58;;;;;;;3.58;1.48;;;23.40;72.00;;;;;;5417372;26;20341;-74
2024/04/09 09:18:24;;;;;;;3.25;1.17;;;23.40;71.70;;;;;;5385589;26;20039;-74
2024/04/09 09:21:00;;;;;;;3.45;1.10;;;23.50;71.90;;;;;;5417080;26;20025;-74
2024/04/09 09:23:27;;;;;;;1.85;1.10;;;23.60;71.80;;;;;;5385583;26;20032;-74
2024/04/09 09:25:54;;;;;;;3.08;1.30;;;23.70;71.40;;;;;;5384757;26;20040;-74
2024/04/09 09:28:22;;;;;;;1.73;1.10;;;23.80;71.50;;;;;;5444891;26;20019;-74
2024/04/09 09:30:49;;;;;;;3.50;1.23;;;23.90;72.10;;;;;;5417215;26;20023;-74
2024/04/09 09:33:31;;;;;;;4.57;1.17;;;23.90;71.30;;;;;;5416361;26;20477;-73
2024/04/09 09:35:58;;;;;;;4.95;1.50;;;24.00;69.80;;;;;;5415830;26;20490;-74
2024/04/09 09:38:28;;;;;;;3.20;1.50;;;24.10;70.40;;;;;;5416733;26;20020;-74
2024/04/09 09:40:55;;;;;;;11.13;1.80;;;24.20;70.20;;;;;;5416857;26;20032;-74
2024/04/09 09:43:26;;;;;;;3.15;1.40;;;24.30;70.20;;;;;;5419505;26;20023;-74
2024/04/09 09:45:53;;;;;;;4.03;1.33;;;24.30;69.90;;;;;;5420321;26;20036;-74
2024/04/09 09:48:21;;;;;;;2.80;1.10;;;24.40;70.40;;;;;;5420589;26;20495;-73
2024/04/09 09:50:48;;;;;;;4.93;1.20;;;24.60;70.90;;;;;;5419621;26;20372;-74
2024/04/09 09:53:17;;;;;;;3.22;1.17;;;24.60;70.90;;;;;;5389016;26;20023;-74
2024/04/09 09:55:45;;;;;;;2.90;1.40;;;24.70;71.30;;;;;;5420356;26;20027;-74
2024/04/09 09:58:19;;;;;;;3.95;1.17;;;24.80;70.60;;;;;;5420088;26;20358;-74
2024/04/09 10:00:47;;;;;;;5.50;1.35;;;24.90;70.60;;;;;;5420323;26;20024;-74
2024/04/09 10:03:14;;;;;;;4.38;1.55;;;25.00;70.80;;;;;;5388695;26;20478;-74
2024/04/09 10:05:41;;;;;;;4.95;1.27;;;25.10;70.50;;;;;;5420130;26;20474;-74
2024/04/09 10:08:17;;;;;;;4.53;1.38;;;25.20;70.40;;;;;;5417984;26;20032;-74
2024/04/09 10:10:43;;;;;;;3.58;1.02;;;25.30;69.70;;;;;;5420243;26;20032;-74
2024/04/09 10:13:09;;;;;;;6.30;1.15;;;25.40;70.50;;;;;;5420015;26;20031;-74
2024/04/09 10:15:44;;;;;;;2.83;1.17;;;25.50;71.00;;;;;;5419697;26;20019;-74
2024/04/09 10:18:10;;;;;;;2.60;1.40;;;25.50;69.80;;;;;;5419767;26;20032;-74
2024/04/09 10:20:37;;;;;;;2.90;0.95;;;25.60;70.50;;;;;;5420076;26;20474;-74
2024/04/09 10:23:07;;;;;;;2.30;1.20;;;25.70;70.20;;;;;;5419960;26;20462;-74
2024/04/09 10:25:40;;;;;;;4.53;1.10;;;25.80;69.20;;;;;;5419626;26;20023;-74
2024/04/09 10:28:10;;;;;;;2.50;1.30;;;25.90;67.50;;;;;;5419732;26;20027;-74
2024/04/09 10:30:38;;;;;;;2.63;1.23;;;25.90;67.60;;;;;;5419805;26;20024;-74
2024/04/09 10:33:06;;;;;;;6.60;1.30;;;26.00;67.40;;;;;;5419119;26;20032;-74
2024/04/09 10:35:33;;;;;;;2.13;0.93;;;26.00;66.70;;;;;;5419731;26;20020;-74
2024/04/09 10:38:06;;;;;;;3.35;1.17;;;26.00;67.10;;;;;;5419615;26;20024;-74
2024/04/09 10:40:36;;;;;;;6.63;1.25;;;26.10;66.00;;;;;;5419553;26;20023;-73
2024/04/09 10:43:06;;;;;;;3.95;1.50;;;26.20;66.30;;;;;;5419566;26;20051;-74
2024/04/09 10:45:32;;;;;;;2.28;1.10;;;26.30;66.60;;;;;;5419115;26;20047;-74
2024/04/09 10:48:00;;;;;;;1.80;0.82;;;26.30;66.10;;;;;;5419645;26;20481;-74
2024/04/09 10:50:26;;;;;;;3.25;1.27;;;26.40;65.80;;;;;;5418423;26;20019;-73
2024/04/09 10:52:53;;;;;;;1.88;0.90;;;26.50;65.70;;;;;;5418376;26;20023;-74
2024/04/09 10:55:20;;;;;;;2.70;1.00;;;26.50;65.40;;;;;;5419288;26;20453;-74
2024/04/09 10:57:53;;;;;;;4.22;0.98;;;26.50;64.60;;;;;;5388316;26;20032;-74
2024/04/09 11:00:21;;;;;;;4.15;1.10;;;26.50;63.00;;;;;;5419430;26;20043;-74
2024/04/09 11:02:48;;;;;;;2.92;1.10;;;26.50;65.60;;;;;;5419394;26;20030;-74
2024/04/09 11:05:17;;;;;;;10.20;1.33;;;26.50;64.90;;;;;;5419356;26;20024;-74
2024/04/09 11:07:45;;;;;;;3.60;1.30;;;26.60;65.40;;;;;;5417229;26;20023;-74
2024/04/09 11:10:16;;;;;;;2.95;1.10;;;26.60;65.40;;;;;;5415490;26;20505;-73
2024/04/09 11:12:48;;;;;;;4.60;1.13;;;26.60;64.90;;;;;;5380895;26;20031;-74
2024/04/09 11:15:15;;;;;;;3.40;1.08;;;26.60;64.30;;;;;;5382997;26;20041;-74
2024/04/09 11:17:42;;;;;;;2.15;1.15;;;26.70;65.70;;;;;;5382786;26;20486;-74
2024/04/09 11:20:10;;;;;;;2.78;1.30;;;26.70;65.30;;;;;;5382896;26;20373;-73
2024/04/09 11:22:43;;;;;;;2.55;1.25;;;26.70;64.30;;;;;;5382964;26;20028;-73
2024/04/09 11:25:13;;;;;;;3.38;1.02;;;26.80;64.10;;;;;;5382099;26;20367;-74
2024/04/09 11:27:44;;;;;;;2.22;1.05;;;26.80;65.60;;;;;;5428788;26;20035;-73
2024/04/09 11:30:21;;;;;;;5.07;1.08;;;26.90;65.60;;;;;;5422196;26;20052;-73
2024/04/09 11:32:47;;;;;;;2.45;1.15;;;26.90;64.00;;;;;;5454196;26;20372;-73
2024/04/09 11:35:20;;;;;;;1.65;0.88;;;27.00;65.30;;;;;;5454172;26;20034;-73
2024/04/09 11:38:00;;;;;;;3.47;0.88;;;27.00;66.50;;;;;;5454213;26;20043;-74
2024/04/09 11:40:28;;;;;;;4.30;1.00;;;27.10;65.40;;;;;;5453935;26;20034;-73
2024/04/09 11:42:59;;;;;;;1.48;0.80;;;27.10;62.80;;;;;;5422334;26;20465;-74
2024/04/09 11:45:30;;;;;;;1.77;0.80;;;27.10;64.70;;;;;;5453924;26;20039;-73
2024/04/09 11:47:57;;;;;;;2.88;0.90;;;27.20;64.00;;;;;;5454014;26;20030;-73
2024/04/09 11:50:24;;;;;;;1.73;0.75;;;27.20;63.70;;;;;;5453940;26;20035;-73
2024/04/09 11:52:51;;;;;;;1.73;0.98;;;27.20;63.60;;;;;;5453253;26;20035;-73
2024/04/09 11:55:17;;;;;;;2.00;0.90;;;27.30;64.30;;;;;;5453795;26;20047;-74
2024/04/09 11:57:46;;;;;;;4.50;1.17;;;27.40;64.70;;;;;;5428627;26;20032;-74
2024/04/09 12:00:14;;;;;;;7.38;1.17;;;27.50;64.40;;;;;;5417846;26;20027;-74
2024/04/09 12:02:40;;;;;;;3.33;0.88;;;27.60;63.50;;;;;;5417750;26;20378;-73
2024/04/09 12:05:07;;;;;;;7.20;1.15;;;27.70;63.80;;;;;;5415358;26;20042;-74
2024/04/09 12:07:33;;;;;;;4.68;1.08;;;27.80;63.00;;;;;;5417427;26;20478;-74
2024/04/09 12:09:59;;;;;;;1.08;0.90;;;27.80;64.30;;;;;;5417342;26;20031;-74
2024/04/09 12:12:26;;;;;;;7.68;0.90;;;27.80;63.00;;;;;;5417511;26;20989;-73
2024/04/09 12:14:52;;;;;;;3.78;0.90;;;27.90;62.80;;;;;;5416779;26;20031;-73
2024/04/09 12:17:18;;;;;;;4.43;1.10;;;28.00;61.70;;;;;;5417407;26;20044;-74
2024/04/09 12:19:44;;;;;;;2.17;0.88;;;28.00;61.50;;;;;;5417839;26;20036;-74
2024/04/09 12:22:14;;;;;;;1.70;0.70;;;28.10;61.00;;;;;;5417483;26;20115;-74
2024/04/09 12:24:43;;;;;;;2.28;0.68;;;28.10;60.00;;;;;;5416725;26;20041;-74
2024/04/09 12:27:10;;;;;;;3.03;0.95;;;28.20;59.40;;;;;;5433861;26;20039;-73
2024/04/09 12:29:36;;;;;;;1.55;0.80;;;28.20;58.20;;;;;;5453245;26;20040;-73
2024/04/09 12:32:04;;;;;;;2.40;0.85;;;28.30;59.10;;;;;;5453279;26;20047;-73
2024/04/09 12:34:32;;;;;;;1.88;0.98;;;28.30;58.80;;;;;;5453098;26;20393;-74
2024/04/09 12:36:58;;;;;;;6.32;1.10;;;28.30;59.10;;;;;;5453309;26;20485;-73
2024/04/09 12:39:25;;;;;;;6.50;0.93;;;28.40;59.10;;;;;;5452472;26;20035;-73
2024/04/09 12:41:54;;;;;;;3.25;0.98;;;28.50;59.30;;;;;;5421299;26;20038;-74
2024/04/09 12:44:21;;;;;;;4.80;1.15;;;28.60;59.70;;;;;;5452898;26;20027;-73
2024/04/09 12:46:48;;;;;;;4.53;0.80;;;28.60;58.80;;;;;;5452964;26;20026;-74
2024/04/09 12:49:15;;;;;;;2.55;0.80;;;28.70;59.30;;;;;;5421138;26;20030;-74